Time;durP1;ratioP1;P1;durP2;ratioP2;P2;SDS_P1;SDS_P2;PMS_P1;PMS_P2;Temp;Humidity;BMP_temperature;BMP_pressure;BME280_temperature;BME280_humidity;BME280_pressure;Samples;Min_cycle;Max_cycle;Signal;HPM_P1;HPM_P2
2023/12/27 00:01:10;;;;;;;9.57;1.50;;;;;;;3.74;99.87;101377.03;7394040;19;20375;-70
2023/12/27 00:03:39;;;;;;;7.72;1.52;;;;;;;3.79;100.00;101382.31;7393706;19;20015;-68
2023/12/27 00:06:08;;;;;;;7.70;1.27;;;;;;;3.80;99.08;101382.34;7395907;19;20018;-69
2023/12/27 00:08:37;;;;;;;7.85;1.40;;;;;;;3.85;100.00;101387.59;7395746;19;20020;-69
2023/12/27 00:11:06;;;;;;;6.47;1.05;;;;;;;3.85;100.00;101387.59;7393656;19;20003;-70
2023/12/27 00:13:34;;;;;;;8.77;1.50;;;;;;;3.86;99.71;101376.38;7394911;19;20011;-70
2023/12/27 00:16:06;;;;;;;9.52;1.85;;;;;;;3.86;100.00;101376.38;7395542;19;20010;-69
2023/12/27 00:18:34;;;;;;;7.85;2.13;;;;;;;3.87;100.00;101393.72;7394274;19;20030;-69
2023/12/27 00:21:03;;;;;;;5.15;1.30;;;;;;;3.85;99.31;101390.19;7396819;19;20015;-69
2023/12/27 00:23:32;;;;;;;10.38;1.58;;;;;;;3.83;100.00;101392.78;7393278;19;20011;-69
2023/12/27 00:26:00;;;;;;;6.47;1.30;;;;;;;3.81;97.74;101394.47;7393551;19;20015;-69
2023/12/27 00:28:29;;;;;;;9.68;2.15;;;;;;;3.81;98.17;101402.25;7395174;19;20023;-69
2023/12/27 00:30:57;;;;;;;7.90;1.25;;;;;;;3.80;98.28;101394.44;7394148;19;20391;-69
2023/12/27 00:33:28;;;;;;;9.55;1.60;;;;;;;3.79;99.95;101401.38;7394477;19;20019;-70
2023/12/27 00:35:56;;;;;;;7.88;1.52;;;;;;;3.79;98.47;101411.75;7393517;19;20024;-68
2023/12/27 00:38:25;;;;;;;11.13;1.25;;;;;;;3.81;99.98;101409.19;7394669;19;20489;-68
2023/12/27 00:40:53;;;;;;;12.32;1.88;;;;;;;3.82;99.84;101409.19;7395001;19;20018;-68
2023/12/27 00:43:22;;;;;;;7.10;1.20;;;;;;;3.82;100.00;101411.78;7398284;19;20418;-68
2023/12/27 00:45:50;;;;;;;8.27;1.38;;;;;;;3.81;99.12;101414.38;7402022;19;20029;-68
2023/12/27 00:48:19;;;;;;;6.15;2.65;;;;;;;3.80;98.75;101423.00;7402331;19;20024;-68
2023/12/27 00:50:50;;;;;;;12.13;1.60;;;;;;;3.77;98.40;101429.00;7401862;19;20015;-69
2023/12/27 00:53:18;;;;;;;8.27;1.80;;;;;;;3.76;99.71;101427.25;7401818;19;20023;-69
2023/12/27 00:55:47;;;;;;;12.38;1.70;;;;;;;3.71;97.26;101434.97;7402164;19;20019;-69
2023/12/27 00:58:16;;;;;;;10.98;1.35;;;;;;;3.69;97.41;101431.47;7401657;19;20014;-69
2023/12/27 01:00:45;;;;;;;5.32;1.75;;;;;;;3.68;100.00;101440.09;7401997;19;20016;-69
2023/12/27 01:03:13;;;;;;;15.57;1.60;;;;;;;3.67;100.00;101446.13;7401694;19;20126;-69
2023/12/27 01:05:42;;;;;;;8.13;1.80;;;;;;;3.65;100.00;101445.25;7401915;19;20015;-69
2023/12/27 01:08:13;;;;;;;8.65;1.55;;;;;;;3.61;98.03;101459.00;7401511;19;20430;-69
2023/12/27 01:10:41;;;;;;;6.75;1.35;;;;;;;3.61;100.00;101459.00;7402108;19;20018;-69
2023/12/27 01:13:10;;;;;;;11.77;1.58;;;;;;;3.58;100.00;101448.56;7398467;19;20384;-69
2023/12/27 01:15:38;;;;;;;9.60;1.38;;;;;;;3.55;100.00;101462.38;7401494;19;20014;-70
2023/12/27 01:18:07;;;;;;;10.20;1.58;;;;;;;3.53;100.00;101451.06;7401401;19;20018;-70
2023/12/27 01:20:35;;;;;;;9.15;1.40;;;;;;;3.50;100.00;101471.78;7400953;19;20027;-70
2023/12/27 01:23:04;;;;;;;12.68;1.73;;;;;;;3.48;98.16;101489.03;7399125;19;20019;-69
2023/12/27 01:25:35;;;;;;;12.50;1.55;;;;;;;3.46;99.15;101490.72;7401216;19;20011;-69
2023/12/27 01:28:03;;;;;;;9.30;1.75;;;;;;;3.46;100.00;101480.34;7401644;19;20031;-69
2023/12/27 01:30:32;;;;;;;9.60;1.30;;;;;;;3.43;99.85;101501.91;7400977;19;20023;-69
2023/12/27 01:33:01;;;;;;;3.03;1.08;;;;;;;3.42;100.00;101495.00;7400099;19;20018;-69
2023/12/27 01:35:30;;;;;;;7.45;1.65;;;;;;;3.40;98.31;101508.78;7398325;19;20018;-69
2023/12/27 01:37:58;;;;;;;11.35;2.20;;;;;;;3.41;98.77;101510.50;7400770;19;20015;-69
2023/12/27 01:40:26;;;;;;;9.57;1.55;;;;;;;3.38;99.42;101513.91;7400630;19;20365;-69
2023/12/27 01:42:58;;;;;;;11.93;1.92;;;;;;;3.38;100.00;101508.72;7400275;19;20014;-69
2023/12/27 01:45:26;;;;;;;7.25;1.50;;;;;;;3.36;100.00;101515.63;7398440;19;20031;-69
2023/12/27 01:47:54;;;;;;;8.77;1.50;;;;;;;3.34;100.00;101517.28;7400086;19;20418;-69
2023/12/27 01:50:23;;;;;;;10.95;1.38;;;;;;;3.31;98.42;101527.63;7400374;19;20022;-69
2023/12/27 01:52:59;;;;;;;11.60;1.35;;;;;;;3.32;98.91;101523.28;7399027;19;20544;-69
2023/12/27 01:55:27;;;;;;;8.40;1.42;;;;;;;3.30;100.00;101525.88;7399871;19;20014;-69
2023/12/27 01:58:00;;;;;;;12.95;1.80;;;;;;;3.29;98.61;101518.91;7399801;19;20031;-69
2023/12/27 02:00:28;;;;;;;11.13;1.67;;;;;;;3.29;98.78;101528.44;7400479;19;20006;-69
2023/12/27 02:02:58;;;;;;;12.77;1.88;;;;;;;3.29;100.00;101525.84;7399540;19;20014;-69
2023/12/27 02:05:26;;;;;;;20.00;2.00;;;;;;;3.29;100.00;101529.31;7397652;19;20018;-69
2023/12/27 02:07:55;;;;;;;14.88;1.98;;;;;;;3.27;100.00;101533.56;7399796;19;20031;-69
2023/12/27 02:10:23;;;;;;;9.13;1.90;;;;;;;3.26;100.00;101537.88;7399713;19;20446;-69
2023/12/27 02:12:52;;;;;;;7.20;1.63;;;;;;;3.23;98.17;101550.78;7399719;19;20015;-68
2023/12/27 02:15:23;;;;;;;6.65;1.20;;;;;;;3.24;99.15;101541.28;7399495;19;20011;-69
2023/12/27 02:17:52;;;;;;;14.45;1.77;;;;;;;3.23;100.00;101536.94;7399137;19;20483;-69
2023/12/27 02:20:21;;;;;;;8.20;1.48;;;;;;;3.24;98.21;101546.47;7398943;19;20017;-69
2023/12/27 02:22:52;;;;;;;11.00;1.90;;;;;;;3.18;98.06;101535.97;7398205;19;20020;-69
2023/12/27 02:25:24;;;;;;;6.55;1.05;;;;;;;3.23;99.56;101544.72;7397905;19;20018;-70
2023/12/27 02:27:53;;;;;;;13.32;1.55;;;;;;;3.20;96.89;101555.03;7398841;19;20419;-70
2023/12/27 02:30:22;;;;;;;10.65;1.67;;;;;;;3.21;100.00;101542.09;7398613;19;20506;-69
2023/12/27 02:32:51;;;;;;;15.93;1.60;;;;;;;3.22;99.60;101549.06;7396544;19;20019;-69
2023/12/27 02:35:20;;;;;;;5.85;1.58;;;;;;;3.22;100.00;101538.69;7398397;19;20015;-69
2023/12/27 02:37:49;;;;;;;9.07;1.73;;;;;;;3.23;100.00;101549.91;7398897;19;20028;-69
2023/12/27 02:40:17;;;;;;;13.73;2.38;;;;;;;3.23;100.00;101557.69;7396464;19;20018;-70
2023/12/27 02:42:49;;;;;;;7.07;1.65;;;;;;;3.21;100.00;101555.06;7398076;19;20485;-69
2023/12/27 02:45:17;;;;;;;14.13;1.92;;;;;;;3.22;100.00;101548.16;7396772;19;20021;-69
2023/12/27 02:47:46;;;;;;;17.95;1.88;;;;;;;3.21;100.00;101551.59;7398378;19;20022;-68
2023/12/27 02:50:14;;;;;;;12.48;1.90;;;;;;;3.22;100.00;101546.47;7397931;19;20027;-68
2023/12/27 02:52:43;;;;;;;9.25;1.38;;;;;;;3.21;100.00;101547.28;7396178;19;20027;-69
2023/12/27 02:55:11;;;;;;;9.63;1.63;;;;;;;3.17;100.00;101540.31;7397782;19;20378;-69
2023/12/27 02:57:39;;;;;;;9.73;1.98;;;;;;;3.16;100.00;101541.13;7398228;19;20035;-69
2023/12/27 03:00:13;;;;;;;11.13;1.77;;;;;;;3.13;100.00;101546.25;7398298;19;20014;-69
2023/12/27 03:02:41;;;;;;;8.05;1.42;;;;;;;3.09;100.00;101545.28;7397971;19;20387;-68
2023/12/27 03:05:11;;;;;;;8.32;1.75;;;;;;;3.03;100.00;101547.78;7394108;19;20022;-68
2023/12/27 03:07:39;;;;;;;14.30;1.80;;;;;;;3.00;100.00;101541.66;7395460;19;20006;-69
2023/12/27 03:10:11;;;;;;;6.28;1.33;;;;;;;2.95;100.00;101549.31;7397707;19;20033;-69
2023/12/27 03:12:39;;;;;;;9.02;1.33;;;;;;;2.89;100.00;101554.34;7398099;19;20078;-69
2023/12/27 03:15:11;;;;;;;9.13;1.63;;;;;;;2.85;100.00;101555.13;7397051;19;20380;-68
2023/12/27 03:17:39;;;;;;;5.57;1.40;;;;;;;2.80;100.00;101554.16;7397812;19;20027;-68
2023/12/27 03:20:10;;;;;;;9.48;1.63;;;;;;;2.74;100.00;101549.69;7397236;19;20010;-69
2023/12/27 03:22:38;;;;;;;20.90;2.22;;;;;;;2.71;100.00;101549.63;7396476;19;20081;-68
2023/12/27 03:25:07;;;;;;;13.32;2.55;;;;;;;2.66;100.00;101539.13;7394889;19;20017;-69
2023/12/27 03:27:36;;;;;;;8.48;1.33;;;;;;;2.62;100.00;101545.09;7397181;19;20014;-69
2023/12/27 03:30:04;;;;;;;7.88;1.60;;;;;;;2.58;100.00;101551.06;7396689;19;20419;-69
2023/12/27 03:32:35;;;;;;;5.55;1.27;;;;;;;2.54;100.00;101554.38;7396853;19;20025;-68
2023/12/27 03:35:04;;;;;;;10.50;2.10;;;;;;;2.50;100.00;101549.97;7395104;19;20015;-68
2023/12/27 03:37:32;;;;;;;13.13;1.75;;;;;;;2.46;100.00;101548.16;7394684;19;20006;-69
2023/12/27 03:40:01;;;;;;;9.65;1.83;;;;;;;2.41;100.00;101550.63;7394941;19;20032;-68
2023/12/27 03:42:29;;;;;;;6.78;1.95;;;;;;;2.36;100.00;101545.31;7394463;19;20443;-68
2023/12/27 03:44:58;;;;;;;12.85;2.30;;;;;;;2.33;100.00;101553.03;7394771;19;20077;-68
2023/12/27 03:47:26;;;;;;;11.02;1.95;;;;;;;2.29;100.00;101546.03;7396477;19;20031;-68
2023/12/27 03:49:57;;;;;;;16.40;1.75;;;;;;;2.24;100.00;101548.50;7396082;19;20010;-68
2023/12/27 03:52:26;;;;;;;9.50;1.83;;;;;;;2.20;100.00;101549.25;7396660;19;20014;-68
2023/12/27 03:54:54;;;;;;;12.98;2.10;;;;;;;2.18;100.00;101557.81;7394666;19;20023;-68
2023/12/27 03:57:23;;;;;;;13.45;2.33;;;;;;;2.17;100.00;101554.34;7394358;19;20011;-68
2023/12/27 03:59:52;;;;;;;8.23;1.67;;;;;;;2.10;100.00;101553.31;7396392;19;20014;-68
2023/12/27 04:02:20;;;;;;;9.43;3.42;;;;;;;2.10;100.00;101565.41;7395640;19;20472;-68
2023/12/27 04:04:49;;;;;;;10.20;2.22;;;;;;;2.08;100.00;101573.09;7393848;19;20014;-68
2023/12/27 04:07:20;;;;;;;7.85;1.50;;;;;;;2.05;100.00;101567.84;7395938;19;20095;-68
2023/12/27 04:09:48;;;;;;;14.98;2.00;;;;;;;2.05;100.00;101566.97;7395364;19;20105;-68
2023/12/27 04:12:17;;;;;;;11.52;2.78;;;;;;;2.04;100.00;101568.69;7393846;19;20062;-68
2023/12/27 04:14:45;;;;;;;9.48;1.58;;;;;;;2.05;100.00;101566.97;7394079;19;20031;-68
2023/12/27 04:17:13;;;;;;;9.75;2.05;;;;;;;2.03;100.00;101572.09;7394769;19;20070;-68
2023/12/27 04:19:42;;;;;;;9.38;1.88;;;;;;;2.03;100.00;101563.47;7395188;19;20090;-68
2023/12/27 04:22:11;;;;;;;5.25;1.45;;;;;;;2.03;100.00;101569.50;7395361;19;20085;-68
2023/12/27 04:24:42;;;;;;;4.13;1.65;;;;;;;2.03;100.00;101566.06;7395242;19;20498;-68
2023/12/27 04:27:10;;;;;;;17.10;2.20;;;;;;;2.01;100.00;101560.84;7395490;19;20078;-68
2023/12/27 04:29:39;;;;;;;17.23;5.57;;;;;;;1.99;100.00;101570.28;7394855;19;20548;-68
2023/12/27 04:32:08;;;;;;;13.00;4.13;;;;;;;1.98;100.00;101575.41;7393561;19;20086;-68
2023/12/27 04:34:37;;;;;;;10.70;1.77;;;;;;;1.95;100.00;101576.22;7393447;19;20078;-68
2023/12/27 04:37:05;;;;;;;8.68;1.50;;;;;;;1.92;100.00;101574.41;7394641;19;20014;-68
2023/12/27 04:39:35;;;;;;;13.57;1.88;;;;;;;1.91;100.00;101574.38;7395041;19;20014;-68
2023/12/27 04:42:13;;;;;;;16.48;2.28;;;;;;;1.88;100.00;101576.88;7393153;19;20048;-68
2023/12/27 04:44:42;;;;;;;11.52;2.33;;;;;;;1.87;100.00;101582.88;7392737;19;20105;-68
2023/12/27 04:47:10;;;;;;;9.40;1.80;;;;;;;1.83;100.00;101588.81;7394704;19;20011;-67
2023/12/27 04:49:38;;;;;;;9.25;1.65;;;;;;;1.82;100.00;101592.22;7394313;19;20086;-68
2023/12/27 04:52:09;;;;;;;12.82;2.40;;;;;;;1.79;100.00;101599.09;7394419;19;20536;-68
2023/12/27 04:54:37;;;;;;;6.68;1.70;;;;;;;1.77;100.00;101610.22;7393289;19;20017;-68
2023/12/27 04:57:08;;;;;;;10.40;1.90;;;;;;;1.74;100.00;101613.56;7394354;19;20069;-68
2023/12/27 04:59:37;;;;;;;9.40;2.05;;;;;;;1.73;100.00;101617.03;7394635;19;20078;-69
2023/12/27 05:02:05;;;;;;;8.60;1.83;;;;;;;1.70;100.00;101611.75;7394359;19;20019;-69
2023/12/27 05:04:34;;;;;;;13.93;2.40;;;;;;;1.69;100.00;101614.28;7391662;19;20417;-69
2023/12/27 05:07:02;;;;;;;10.27;1.50;;;;;;;1.67;100.00;101619.44;7394100;19;20031;-69
2023/12/27 05:09:30;;;;;;;10.95;1.90;;;;;;;1.65;100.00;101623.66;7392026;19;20015;-68
2023/12/27 05:11:59;;;;;;;11.98;2.10;;;;;;;1.63;100.00;101625.31;7393668;19;20070;-68
2023/12/27 05:14:30;;;;;;;14.75;2.35;;;;;;;1.61;100.00;101627.00;7392413;19;20074;-69
2023/12/27 05:16:58;;;;;;;10.20;1.90;;;;;;;1.59;100.00;101628.66;7394407;19;20066;-69
2023/12/27 05:19:27;;;;;;;11.45;1.52;;;;;;;1.57;100.00;101635.50;7393851;19;20414;-69
2023/12/27 05:21:55;;;;;;;9.93;2.22;;;;;;;1.56;100.00;101633.75;7393540;19;20015;-69
2023/12/27 05:24:23;;;;;;;8.98;1.70;;;;;;;1.53;100.00;101634.53;7391623;19;20410;-69
2023/12/27 05:26:54;;;;;;;11.90;2.05;;;;;;;1.51;100.00;101628.44;7393796;19;20074;-69
2023/12/27 05:29:20;;;;;;;14.23;2.22;;;;;;;1.52;100.00;101639.69;7398511;19;20109;-69
2023/12/27 05:31:51;;;;;;;11.15;2.28;;;;;;;1.50;100.00;101638.75;7401090;19;20014;-69
2023/12/27 05:34:19;;;;;;;9.43;1.30;;;;;;;1.49;100.00;101639.56;7399094;19;20015;-69
2023/12/27 05:36:47;;;;;;;8.80;1.80;;;;;;;1.45;100.00;101644.66;7400873;19;20074;-69
2023/12/27 05:39:16;;;;;;;11.48;2.13;;;;;;;1.46;100.00;101643.81;7400457;19;20077;-69
2023/12/27 05:41:44;;;;;;;14.48;2.28;;;;;;;1.45;100.00;101641.19;7400414;19;20525;-69
2023/12/27 05:44:13;;;;;;;11.10;2.30;;;;;;;1.44;100.00;101644.59;7398615;19;20088;-69
2023/12/27 05:46:41;;;;;;;7.13;1.75;;;;;;;1.42;100.00;101654.03;7398482;19;20014;-69
2023/12/27 05:49:12;;;;;;;14.43;2.42;;;;;;;1.38;100.00;101647.00;7402407;19;20087;-69
2023/12/27 05:51:41;;;;;;;12.15;1.77;;;;;;;1.36;100.00;101644.38;7399915;19;20007;-69
2023/12/27 05:54:09;;;;;;;13.50;2.42;;;;;;;1.33;100.00;101656.31;7398650;19;20018;-69
2023/12/27 05:56:38;;;;;;;17.73;2.50;;;;;;;1.30;100.00;101652.81;7397549;19;20010;-69
2023/12/27 05:59:06;;;;;;;7.82;1.67;;;;;;;1.27;100.00;101654.44;7400213;19;20082;-69
2023/12/27 06:01:35;;;;;;;9.55;2.20;;;;;;;1.25;100.00;101664.72;7399498;19;20489;-69
2023/12/27 06:04:04;;;;;;;12.40;3.03;;;;;;;1.24;100.00;101662.06;7398235;19;20097;-69
2023/12/27 06:06:35;;;;;;;20.10;4.10;;;;;;;1.21;100.00;101667.16;7397655;19;20014;-69
2023/12/27 06:09:03;;;;;;;15.80;3.83;;;;;;;1.18;100.00;101660.19;7397599;19;20103;-69
2023/12/27 06:11:32;;;;;;;15.00;4.55;;;;;;;1.17;100.00;101666.19;7399592;19;20070;-68
2023/12/27 06:14:00;;;;;;;14.50;5.28;;;;;;;1.14;100.00;101677.31;7398075;19;20082;-69
2023/12/27 06:16:28;;;;;;;17.50;7.47;;;;;;;1.11;100.00;101669.47;7399045;19;20086;-69
2023/12/27 06:18:57;;;;;;;16.02;7.07;;;;;;;1.10;100.00;101678.03;7399474;19;20035;-69
2023/12/27 06:21:26;;;;;;;16.75;8.35;;;;;;;1.07;100.00;101680.50;7399309;19;20029;-69
2023/12/27 06:23:57;;;;;;;16.27;7.03;;;;;;;1.06;100.00;101683.06;7397592;19;20085;-69
2023/12/27 06:26:32;;;;;;;16.17;6.82;;;;;;;1.04;100.00;101675.25;7396563;19;20066;-69
2023/12/27 06:29:00;;;;;;;9.88;4.50;;;;;;;1.03;100.00;101678.66;7399385;19;20089;-70
2023/12/27 06:31:29;;;;;;;13.18;4.38;;;;;;;1.02;100.00;101676.91;7399096;19;20363;-69
2023/12/27 06:33:57;;;;;;;10.85;4.45;;;;;;;1.00;100.00;101678.59;7397671;19;20070;-69
2023/12/27 06:36:26;;;;;;;9.63;3.60;;;;;;;0.98;100.00;101681.09;7396615;19;20087;-69
2023/12/27 06:38:57;;;;;;;10.05;3.72;;;;;;;0.97;100.00;101675.88;7398655;19;20090;-69
2023/12/27 06:41:25;;;;;;;8.80;2.83;;;;;;;0.95;100.00;101685.31;7399165;19;20027;-69
2023/12/27 06:43:53;;;;;;;11.30;2.65;;;;;;;0.93;100.00;101686.94;7397061;19;20416;-69
2023/12/27 06:46:22;;;;;;;11.65;2.28;;;;;;;0.91;100.00;101692.06;7396966;19;20079;-69
2023/12/27 06:48:50;;;;;;;12.88;2.70;;;;;;;0.89;100.00;101692.84;7398297;19;20013;-69
2023/12/27 06:51:19;;;;;;;16.85;3.03;;;;;;;0.87;100.00;101699.66;7398478;19;20082;-69
2023/12/27 06:53:48;;;;;;;7.45;1.70;;;;;;;0.84;100.00;101695.28;7396944;19;20078;-69
2023/12/27 06:56:19;;;;;;;14.85;4.18;;;;;;;0.80;100.00;101699.44;7398012;19;20439;-69
2023/12/27 06:58:47;;;;;;;12.85;4.60;;;;;;;0.80;100.00;101688.25;7398247;19;20073;-69
2023/12/27 07:01:17;;;;;;;14.52;4.75;;;;;;;0.78;100.00;101687.31;7397610;19;20426;-69
2023/12/27 07:03:45;;;;;;;19.67;7.47;;;;;;;0.74;100.00;101680.28;7396582;19;20074;-69
2023/12/27 07:06:14;;;;;;;16.35;9.63;;;;;;;0.72;100.00;101689.69;7396668;19;20167;-68
2023/12/27 07:08:43;;;;;;;20.70;12.75;;;;;;;0.69;100.00;101694.75;7397523;19;20070;-69
2023/12/27 07:11:18;;;;;;;35.65;18.75;;;;;;;0.64;100.00;101692.91;7397304;19;20511;-68
2023/12/27 07:13:49;;;;;;;28.70;14.05;;;;;;;0.62;100.00;101701.41;7396150;19;20014;-69
2023/12/27 07:16:18;;;;;;;19.35;8.95;;;;;;;0.59;100.00;101709.06;7396298;19;20015;-69
2023/12/27 07:18:46;;;;;;;16.33;6.80;;;;;;;0.54;100.00;101706.31;7398096;19;20094;-68
2023/12/27 07:21:15;;;;;;;15.82;4.80;;;;;;;0.53;100.00;101706.25;7397147;19;20391;-68
2023/12/27 07:23:43;;;;;;;12.55;5.28;;;;;;;0.50;100.00;101706.16;7395770;19;20019;-69
2023/12/27 07:26:14;;;;;;;16.83;9.05;;;;;;;0.46;100.00;101711.19;7396442;19;20083;-68
2023/12/27 07:28:43;;;;;;;29.25;14.75;;;;;;;0.46;100.00;101728.41;7396724;19;20413;-69
2023/12/27 07:31:14;;;;;;;41.00;18.73;;;;;;;0.43;100.00;101731.75;7397066;19;20078;-69
2023/12/27 07:33:42;;;;;;;26.65;6.90;;;;;;;0.39;100.00;101729.91;7395201;19;20495;-69
2023/12/27 07:36:11;;;;;;;14.95;6.18;;;;;;;0.37;100.00;101723.78;7396716;19;20028;-69
2023/12/27 07:38:39;;;;;;;14.30;6.53;;;;;;;0.31;100.00;101711.53;7396568;19;20010;-69
2023/12/27 07:41:08;;;;;;;27.50;16.10;;;;;;;0.32;100.00;101712.44;7396769;19;20014;-69
2023/12/27 07:43:37;;;;;;;64.05;39.70;;;;;;;0.31;100.00;101721.00;7395376;19;20075;-69
2023/12/27 07:46:07;;;;;;;63.53;38.88;;;;;;;0.30;100.00;101721.81;7395801;19;20011;-69
2023/12/27 07:48:38;;;;;;;38.80;26.88;;;;;;;0.28;100.00;101720.91;7394274;19;20501;-69
2023/12/27 07:51:07;;;;;;;33.28;19.17;;;;;;;0.27;100.00;101713.97;7395786;19;20157;-69
2023/12/27 07:53:41;;;;;;;22.15;10.63;;;;;;;0.26;100.00;101723.41;7395344;19;20425;-69
2023/12/27 07:56:12;;;;;;;14.90;8.02;;;;;;;0.26;100.00;101722.53;7396028;19;20396;-69
2023/12/27 07:58:40;;;;;;;12.70;6.00;;;;;;;0.24;100.00;101719.91;7394560;19;20034;-69
2023/12/27 08:01:09;;;;;;;17.90;6.00;;;;;;;0.25;100.00;101723.34;7395422;19;20070;-69
2023/12/27 08:03:40;;;;;;;18.15;7.20;;;;;;;0.25;100.00;101732.00;7394754;19;20094;-69
2023/12/27 08:06:09;;;;;;;15.25;7.95;;;;;;;0.24;100.00;101740.56;7394891;19;20070;-69
2023/12/27 08:08:37;;;;;;;22.80;7.63;;;;;;;0.24;100.00;101740.56;7395185;19;20093;-69
2023/12/27 08:11:06;;;;;;;17.50;7.13;;;;;;;0.25;100.00;101733.66;7395078;19;20086;-69
2023/12/27 08:13:36;;;;;;;26.05;8.18;;;;;;;0.26;100.00;101740.59;7394389;19;20077;-69
2023/12/27 08:16:05;;;;;;;15.68;6.00;;;;;;;0.26;100.00;101745.75;7395081;19;20028;-69
2023/12/27 08:18:33;;;;;;;10.80;5.15;;;;;;;0.29;100.00;101749.34;7395039;19;20027;-69
2023/12/27 08:21:04;;;;;;;14.27;5.22;;;;;;;0.29;100.00;101751.03;7395502;19;20028;-69
2023/12/27 08:23:33;;;;;;;14.25;5.07;;;;;;;0.32;100.00;101758.91;7393870;19;20385;-69
2023/12/27 08:26:04;;;;;;;13.55;4.82;;;;;;;0.34;100.00;101754.66;7394430;19;20361;-69
2023/12/27 08:28:32;;;;;;;11.88;4.20;;;;;;;0.37;100.00;101756.47;7396149;19;20074;-69
2023/12/27 08:31:01;;;;;;;15.50;5.15;;;;;;;0.39;100.00;101766.06;7395170;19;20536;-69
2023/12/27 08:33:30;;;;;;;14.73;4.05;;;;;;;0.42;100.00;101771.31;7394444;19;20103;-69
2023/12/27 08:35:59;;;;;;;11.57;3.53;;;;;;;0.46;100.00;101780.06;7394827;19;20074;-69
2023/12/27 08:38:31;;;;;;;12.73;3.75;;;;;;;0.48;100.00;101784.44;7394101;19;20427;-69
2023/12/27 08:40:59;;;;;;;12.88;3.13;;;;;;;0.53;100.00;101781.16;7395341;19;20015;-69
2023/12/27 08:43:30;;;;;;;12.63;3.72;;;;;;;0.56;100.00;101776.09;7392930;19;20010;-70
2023/12/27 08:45:58;;;;;;;8.00;2.75;;;;;;;0.59;100.00;101773.63;7392673;19;20481;-69
2023/12/27 08:48:27;;;;;;;23.80;4.10;;;;;;;0.61;100.00;101778.00;7392279;19;20017;-69
2023/12/27 08:50:55;;;;;;;12.43;3.58;;;;;;;0.65;100.00;101774.72;7392671;19;20082;-69
2023/12/27 08:53:23;;;;;;;18.58;3.30;;;;;;;0.70;100.00;101777.47;7392545;19;20095;-70
2023/12/27 08:55:54;;;;;;;16.23;4.00;;;;;;;0.75;100.00;101777.63;7394230;19;20086;-69
2023/12/27 08:58:23;;;;;;;12.80;4.93;;;;;;;0.78;100.00;101778.63;7392855;19;20070;-69
2023/12/27 09:00:51;;;;;;;17.65;3.55;;;;;;;0.84;100.00;101784.84;7392415;19;20032;-69
2023/12/27 09:03:20;;;;;;;13.00;3.92;;;;;;;0.89;100.00;101780.69;7394451;19;20091;-69
2023/12/27 09:05:48;;;;;;;9.82;3.20;;;;;;;0.93;100.00;101769.63;7400975;19;20006;-69
2023/12/27 09:08:24;;;;;;;12.23;3.05;;;;;;;0.99;100.00;101777.59;7401595;19;20015;-69
2023/12/27 09:10:55;;;;;;;9.88;3.25;;;;;;;1.03;100.00;101782.03;7401916;19;20095;-69
2023/12/27 09:13:23;;;;;;;21.27;4.40;;;;;;;1.08;100.00;101774.47;7400162;19;20501;-70
2023/12/27 09:15:52;;;;;;;12.57;5.15;;;;;;;1.14;100.00;101783.28;7401494;19;20078;-70
2023/12/27 09:18:20;;;;;;;17.02;8.13;;;;;;;1.21;100.00;101783.50;7401140;19;20078;-69
2023/12/27 09:20:48;;;;;;;15.77;7.80;;;;;;;1.26;100.00;101781.94;7400904;19;20475;-68
2023/12/27 09:23:14;;;;;;;22.30;10.25;;;;;;;1.32;100.00;101774.38;7397800;19;20074;-68
2023/12/27 09:25:43;;;;;;;28.75;12.93;;;;;;;1.38;100.00;101782.34;7401034;19;20410;-68
2023/12/27 09:28:14;;;;;;;13.68;6.38;;;;;;;1.44;100.00;101789.41;7400918;19;20095;-68
2023/12/27 09:30:42;;;;;;;13.43;4.55;;;;;;;1.49;100.00;101781.81;7398018;19;20007;-69
2023/12/27 09:33:11;;;;;;;13.27;3.47;;;;;;;1.57;100.00;101782.97;7397893;19;20014;-70
2023/12/27 09:35:40;;;;;;;12.30;3.50;;;;;;;1.63;100.00;101776.25;7400433;19;20006;-69
2023/12/27 09:38:09;;;;;;;12.63;3.75;;;;;;;1.71;100.00;101770.47;7400637;19;20014;-69
2023/12/27 09:40:37;;;;;;;18.27;5.75;;;;;;;1.74;100.00;101770.53;7400240;19;20070;-69
2023/12/27 09:43:07;;;;;;;11.00;3.13;;;;;;;1.81;100.00;101761.25;7399347;19;20086;-69
2023/12/27 09:45:40;;;;;;;15.50;3.13;;;;;;;1.87;100.00;101774.38;7399981;19;20498;-69
2023/12/27 09:48:13;;;;;;;16.00;3.90;;;;;;;1.91;100.00;101774.53;7397501;19;20082;-67
2023/12/27 09:50:42;;;;;;;12.88;4.13;;;;;;;1.97;100.00;101771.22;7397860;19;20015;-67
2023/12/27 09:53:13;;;;;;;17.48;7.30;;;;;;;2.01;100.00;101770.50;7399514;19;20010;-68
2023/12/27 09:55:39;;;;;;;19.38;7.50;;;;;;;2.07;100.00;101774.97;7397919;19;20010;-67
2023/12/27 09:58:07;;;;;;;17.70;5.03;;;;;;;2.10;100.00;101778.53;7399381;19;20013;-67
2023/12/27 10:00:43;;;;;;;15.02;3.80;;;;;;;2.16;100.00;101774.38;7396615;19;20077;-68
2023/12/27 10:03:17;;;;;;;17.75;3.80;;;;;;;2.22;100.00;101767.66;7398588;19;20488;-67
2023/12/27 10:05:53;;;;;;;22.20;5.03;;;;;;;2.26;100.00;101771.22;7399884;19;20066;-68
2023/12/27 10:08:22;;;;;;;17.23;5.50;;;;;;;2.32;100.00;101766.22;7397397;19;20094;-69
2023/12/27 10:10:52;;;;;;;17.50;4.63;;;;;;;2.36;100.00;101770.63;7399430;19;20081;-69
2023/12/27 10:13:22;;;;;;;21.38;8.45;;;;;;;2.42;100.00;101768.22;7398552;19;20031;-69
2023/12/27 10:15:53;;;;;;;17.95;4.95;;;;;;;2.47;100.00;101777.88;7397739;19;20505;-67
2023/12/27 10:18:22;;;;;;;15.95;5.72;;;;;;;2.52;100.00;101760.72;7399451;19;20027;-71
2023/12/27 10:20:51;;;;;;;12.25;4.15;;;;;;;2.56;100.00;101768.63;7399231;19;20074;-69
2023/12/27 10:23:19;;;;;;;9.00;3.40;;;;;;;2.62;100.00;101773.09;7397395;19;20014;-68
2023/12/27 10:25:47;;;;;;;12.18;2.88;;;;;;;2.67;100.00;101771.50;7399034;19;20014;-68
2023/12/27 10:28:16;;;;;;;9.57;4.18;;;;;;;2.72;100.00;101761.28;7397120;19;20070;-68
2023/12/27 10:30:46;;;;;;;17.25;4.63;;;;;;;2.76;100.00;101757.94;7398847;19;20552;-68
2023/12/27 10:33:19;;;;;;;10.52;3.50;;;;;;;2.79;100.00;101758.00;7398424;19;20015;-68
2023/12/27 10:35:48;;;;;;;12.27;5.55;;;;;;;2.85;100.00;101752.13;7399695;19;20014;-69
2023/12/27 10:38:18;;;;;;;15.35;8.70;;;;;;;2.90;100.00;101743.59;7399137;19;20018;-67
2023/12/27 10:40:46;;;;;;;16.85;10.50;;;;;;;2.95;100.00;101735.09;7398771;19;20011;-68
2023/12/27 10:43:14;;;;;;;14.10;5.35;;;;;;;3.00;100.00;101723.13;7397434;19;20028;-68
2023/12/27 10:45:43;;;;;;;12.48;3.03;;;;;;;3.04;100.00;101712.84;7397966;19;20015;-68
2023/12/27 10:48:13;;;;;;;14.95;4.68;;;;;;;3.08;100.00;101708.63;7396382;19;20082;-68
2023/12/27 10:50:46;;;;;;;10.80;2.83;;;;;;;3.12;100.00;101697.47;7397155;19;20086;-68
2023/12/27 10:53:21;;;;;;;16.23;2.53;;;;;;;3.18;100.00;101696.75;7397017;19;20074;-68
2023/12/27 10:55:51;;;;;;;10.73;5.55;;;;;;;3.24;100.00;101702.09;7397642;19;20495;-68
2023/12/27 10:58:24;;;;;;;13.38;5.28;;;;;;;3.28;100.00;101696.13;7395894;19;20026;-68
2023/12/27 11:00:52;;;;;;;22.40;7.43;;;;;;;3.31;100.00;101688.44;7396500;19;20035;-68
2023/12/27 11:03:21;;;;;;;20.45;9.18;;;;;;;3.39;100.00;101686.88;7396954;19;20481;-68
2023/12/27 11:05:53;;;;;;;19.40;11.85;;;;;;;3.44;100.00;101681.81;7395571;19;20102;-68
2023/12/27 11:08:22;;;;;;;16.33;8.20;;;;;;;3.50;100.00;101683.66;7395101;19;20078;-68
2023/12/27 11:10:52;;;;;;;15.50;7.72;;;;;;;3.56;100.00;101686.38;7395399;19;20010;-68
2023/12/27 11:13:25;;;;;;;14.80;5.93;;;;;;;3.62;100.00;101689.13;7397319;19;20027;-68
2023/12/27 11:15:54;;;;;;;11.25;3.92;;;;;;;3.69;100.00;101688.41;7398325;19;20018;-69
2023/12/27 11:18:25;;;;;;;17.08;6.25;;;;;;;3.77;100.00;101682.50;7397602;19;20073;-68
2023/12/27 11:20:57;;;;;;;15.55;5.85;;;;;;;3.83;100.00;101674.84;7395932;19;20018;-68
2023/12/27 11:23:32;;;;;;;17.50;3.85;;;;;;;3.89;100.00;101668.06;7396289;19;20018;-69
2023/12/27 11:26:04;;;;;;;10.18;3.00;;;;;;;3.95;100.00;101664.72;7395074;19;20078;-69
2023/12/27 11:28:38;;;;;;;9.43;3.33;;;;;;;4.02;100.00;101663.13;7395416;19;20028;-68